sensor_id;sensor_type;location;lat;lon;timestamp;P1;durP1;ratioP1;P2;durP2;ratioP2
11943;SDS011;6031;50.220;10.122;2023-04-03T00:00:59;2.23;;;2.00;;
11943;SDS011;6031;50.220;10.122;2023-04-03T00:03:26;2.37;;;2.17;;
11943;SDS011;6031;50.220;10.122;2023-04-03T00:05:51;2.27;;;1.87;;
11943;SDS011;6031;50.220;10.122;2023-04-03T00:08:17;6.37;;;2.00;;
11943;SDS011;6031;50.220;10.122;2023-04-03T00:10:42;2.97;;;2.70;;
11943;SDS011;6031;50.220;10.122;2023-04-03T00:13:08;3.63;;;2.50;;
11943;SDS011;6031;50.220;10.122;2023-04-03T00:15:35;3.23;;;2.87;;
11943;SDS011;6031;50.220;10.122;2023-04-03T00:18:02;3.33;;;2.70;;
11943;SDS011;6031;50.220;10.122;2023-04-03T00:20:28;3.40;;;2.60;;
11943;SDS011;6031;50.220;10.122;2023-04-03T00:22:53;2.43;;;2.23;;
11943;SDS011;6031;50.220;10.122;2023-04-03T00:25:19;3.30;;;2.63;;
11943;SDS011;6031;50.220;10.122;2023-04-03T00:27:45;2.83;;;2.50;;
11943;SDS011;6031;50.220;10.122;2023-04-03T00:30:11;3.50;;;2.50;;
11943;SDS011;6031;50.220;10.122;2023-04-03T00:32:39;4.20;;;2.60;;
11943;SDS011;6031;50.220;10.122;2023-04-03T00:35:05;2.20;;;2.10;;
11943;SDS011;6031;50.220;10.122;2023-04-03T00:37:31;2.93;;;2.70;;
11943;SDS011;6031;50.220;10.122;2023-04-03T00:39:57;3.33;;;3.03;;
11943;SDS011;6031;50.220;10.122;2023-04-03T00:42:23;3.70;;;2.90;;
11943;SDS011;6031;50.220;10.122;2023-04-03T00:47:15;2.60;;;2.40;;
11943;SDS011;6031;50.220;10.122;2023-04-03T00:49:42;3.00;;;2.80;;
11943;SDS011;6031;50.220;10.122;2023-04-03T00:52:10;2.80;;;2.60;;
11943;SDS011;6031;50.220;10.122;2023-04-03T00:54:40;3.13;;;2.83;;
11943;SDS011;6031;50.220;10.122;2023-04-03T00:57:07;4.47;;;2.83;;
11943;SDS011;6031;50.220;10.122;2023-04-03T00:59:35;7.10;;;2.80;;
11943;SDS011;6031;50.220;10.122;2023-04-03T01:02:05;2.67;;;2.43;;
11943;SDS011;6031;50.220;10.122;2023-04-03T01:04:35;3.00;;;2.70;;
11943;SDS011;6031;50.220;10.122;2023-04-03T01:07:25;2.40;;;1.97;;
11943;SDS011;6031;50.220;10.122;2023-04-03T01:09:53;3.83;;;2.10;;
11943;SDS011;6031;50.220;10.122;2023-04-03T01:12:24;3.37;;;2.63;;
11943;SDS011;6031;50.220;10.122;2023-04-03T01:14:53;3.23;;;2.80;;
11943;SDS011;6031;50.220;10.122;2023-04-03T01:20:03;3.43;;;2.23;;
11943;SDS011;6031;50.220;10.122;2023-04-03T01:22:56;2.67;;;2.20;;
11943;SDS011;6031;50.220;10.122;2023-04-03T01:25:30;2.30;;;2.00;;
11943;SDS011;6031;50.220;10.122;2023-04-03T01:27:56;2.60;;;2.40;;
11943;SDS011;6031;50.220;10.122;2023-04-03T01:30:24;3.37;;;1.80;;
11943;SDS011;6031;50.220;10.122;2023-04-03T01:32:55;2.70;;;1.70;;
11943;SDS011;6031;50.220;10.122;2023-04-03T01:35:21;5.00;;;2.40;;
11943;SDS011;6031;50.220;10.122;2023-04-03T01:37:47;3.07;;;2.77;;
11943;SDS011;6031;50.220;10.122;2023-04-03T01:40:13;4.33;;;2.00;;
11943;SDS011;6031;50.220;10.122;2023-04-03T01:42:38;6.17;;;2.60;;
11943;SDS011;6031;50.220;10.122;2023-04-03T01:45:04;3.63;;;1.70;;
11943;SDS011;6031;50.220;10.122;2023-04-03T01:47:30;2.70;;;2.20;;
11943;SDS011;6031;50.220;10.122;2023-04-03T01:49:55;2.60;;;2.40;;
11943;SDS011;6031;50.220;10.122;2023-04-03T01:52:21;5.87;;;2.50;;
11943;SDS011;6031;50.220;10.122;2023-04-03T01:54:47;3.33;;;2.33;;
11943;SDS011;6031;50.220;10.122;2023-04-03T01:57:12;3.20;;;2.03;;
11943;SDS011;6031;50.220;10.122;2023-04-03T01:59:39;2.30;;;2.10;;
11943;SDS011;6031;50.220;10.122;2023-04-03T02:02:06;1.63;;;1.53;;
11943;SDS011;6031;50.220;10.122;2023-04-03T02:04:31;2.83;;;2.23;;
11943;SDS011;6031;50.220;10.122;2023-04-03T02:06:57;4.93;;;2.03;;
11943;SDS011;6031;50.220;10.122;2023-04-03T02:09:23;2.87;;;2.23;;
11943;SDS011;6031;50.220;10.122;2023-04-03T02:11:48;1.87;;;1.57;;
11943;SDS011;6031;50.220;10.122;2023-04-03T02:14:14;2.43;;;2.23;;
11943;SDS011;6031;50.220;10.122;2023-04-03T02:16:39;2.70;;;2.50;;
11943;SDS011;6031;50.220;10.122;2023-04-03T02:19:05;3.40;;;2.30;;
11943;SDS011;6031;50.220;10.122;2023-04-03T02:21:31;2.80;;;2.37;;
11943;SDS011;6031;50.220;10.122;2023-04-03T02:23:57;3.80;;;2.30;;
11943;SDS011;6031;50.220;10.122;2023-04-03T02:26:22;2.97;;;2.37;;
11943;SDS011;6031;50.220;10.122;2023-04-03T02:28:48;2.63;;;2.20;;
11943;SDS011;6031;50.220;10.122;2023-04-03T02:31:13;2.77;;;1.97;;
11943;SDS011;6031;50.220;10.122;2023-04-03T02:33:39;3.00;;;2.57;;
11943;SDS011;6031;50.220;10.122;2023-04-03T02:36:06;2.43;;;1.63;;
11943;SDS011;6031;50.220;10.122;2023-04-03T02:38:33;2.60;;;2.50;;
11943;SDS011;6031;50.220;10.122;2023-04-03T02:40:59;3.67;;;2.47;;
11943;SDS011;6031;50.220;10.122;2023-04-03T02:43:29;1.93;;;1.80;;
11943;SDS011;6031;50.220;10.122;2023-04-03T02:45:55;2.20;;;2.00;;
11943;SDS011;6031;50.220;10.122;2023-04-03T02:48:21;3.10;;;2.70;;
11943;SDS011;6031;50.220;10.122;2023-04-03T02:50:47;3.20;;;2.10;;
11943;SDS011;6031;50.220;10.122;2023-04-03T02:53:12;3.17;;;2.63;;
11943;SDS011;6031;50.220;10.122;2023-04-03T02:55:38;3.10;;;2.23;;
11943;SDS011;6031;50.220;10.122;2023-04-03T02:58:04;2.83;;;2.43;;
11943;SDS011;6031;50.220;10.122;2023-04-03T03:00:30;2.10;;;2.00;;
11943;SDS011;6031;50.220;10.122;2023-04-03T03:02:55;2.80;;;2.53;;
11943;SDS011;6031;50.220;10.122;2023-04-03T03:05:21;2.90;;;2.47;;
11943;SDS011;6031;50.220;10.122;2023-04-03T03:07:46;4.60;;;4.20;;
11943;SDS011;6031;50.220;10.122;2023-04-03T03:10:12;4.17;;;1.87;;
11943;SDS011;6031;50.220;10.122;2023-04-03T03:12:38;3.97;;;2.40;;
11943;SDS011;6031;50.220;10.122;2023-04-03T03:15:04;2.93;;;2.10;;
11943;SDS011;6031;50.220;10.122;2023-04-03T03:17:30;4.13;;;2.30;;
11943;SDS011;6031;50.220;10.122;2023-04-03T03:19:55;2.03;;;1.90;;
11943;SDS011;6031;50.220;10.122;2023-04-03T03:22:21;3.10;;;2.13;;
11943;SDS011;6031;50.220;10.122;2023-04-03T03:24:46;2.83;;;2.60;;
11943;SDS011;6031;50.220;10.122;2023-04-03T03:27:12;4.33;;;3.00;;
11943;SDS011;6031;50.220;10.122;2023-04-03T03:29:37;3.13;;;2.80;;
11943;SDS011;6031;50.220;10.122;2023-04-03T03:32:03;2.67;;;2.00;;
11943;SDS011;6031;50.220;10.122;2023-04-03T03:34:29;5.83;;;2.63;;
11943;SDS011;6031;50.220;10.122;2023-04-03T03:36:54;2.73;;;2.17;;
11943;SDS011;6031;50.220;10.122;2023-04-03T03:39:20;3.47;;;2.90;;
11943;SDS011;6031;50.220;10.122;2023-04-03T03:41:46;3.13;;;2.93;;
11943;SDS011;6031;50.220;10.122;2023-04-03T03:44:12;5.67;;;2.40;;
11943;SDS011;6031;50.220;10.122;2023-04-03T03:46:37;3.13;;;2.70;;
11943;SDS011;6031;50.220;10.122;2023-04-03T03:49:03;3.20;;;2.60;;
11943;SDS011;6031;50.220;10.122;2023-04-03T03:51:29;3.40;;;2.93;;
11943;SDS011;6031;50.220;10.122;2023-04-03T03:53:54;2.97;;;2.77;;
11943;SDS011;6031;50.220;10.122;2023-04-03T03:56:20;4.27;;;3.30;;
11943;SDS011;6031;50.220;10.122;2023-04-03T03:58:46;5.70;;;2.77;;
11943;SDS011;6031;50.220;10.122;2023-04-03T04:01:11;3.37;;;2.30;;
11943;SDS011;6031;50.220;10.122;2023-04-03T04:03:37;3.43;;;2.60;;
11943;SDS011;6031;50.220;10.122;2023-04-03T04:06:02;3.00;;;2.80;;
11943;SDS011;6031;50.220;10.122;2023-04-03T04:08:28;5.97;;;3.13;;
11943;SDS011;6031;50.220;10.122;2023-04-03T04:10:54;3.07;;;2.87;;
11943;SDS011;6031;50.220;10.122;2023-04-03T04:13:19;7.97;;;3.50;;
11943;SDS011;6031;50.220;10.122;2023-04-03T04:15:45;3.77;;;3.47;;
11943;SDS011;6031;50.220;10.122;2023-04-03T04:18:11;10.97;;;3.20;;
11943;SDS011;6031;50.220;10.122;2023-04-03T04:20:36;2.63;;;2.50;;
11943;SDS011;6031;50.220;10.122;2023-04-03T04:23:02;6.83;;;3.77;;
11943;SDS011;6031;50.220;10.122;2023-04-03T04:25:27;2.93;;;2.73;;
11943;SDS011;6031;50.220;10.122;2023-04-03T04:27:53;3.33;;;2.80;;
11943;SDS011;6031;50.220;10.122;2023-04-03T04:30:18;2.83;;;2.30;;
11943;SDS011;6031;50.220;10.122;2023-04-03T04:32:44;4.93;;;3.03;;
11943;SDS011;6031;50.220;10.122;2023-04-03T04:35:09;3.77;;;3.33;;
11943;SDS011;6031;50.220;10.122;2023-04-03T04:37:35;5.30;;;2.90;;
11943;SDS011;6031;50.220;10.122;2023-04-03T04:40:00;2.80;;;2.60;;
11943;SDS011;6031;50.220;10.122;2023-04-03T04:42:26;3.90;;;2.57;;
11943;SDS011;6031;50.220;10.122;2023-04-03T04:44:52;4.70;;;3.20;;
11943;SDS011;6031;50.220;10.122;2023-04-03T04:47:17;4.53;;;3.50;;
11943;SDS011;6031;50.220;10.122;2023-04-03T04:49:43;4.27;;;3.30;;
11943;SDS011;6031;50.220;10.122;2023-04-03T04:52:08;4.43;;;3.77;;
11943;SDS011;6031;50.220;10.122;2023-04-03T04:54:34;5.37;;;3.60;;
11943;SDS011;6031;50.220;10.122;2023-04-03T04:57:00;4.70;;;4.07;;
11943;SDS011;6031;50.220;10.122;2023-04-03T04:59:25;5.00;;;3.83;;
11943;SDS011;6031;50.220;10.122;2023-04-03T05:01:51;6.60;;;4.63;;
11943;SDS011;6031;50.220;10.122;2023-04-03T05:04:16;3.83;;;3.47;;
11943;SDS011;6031;50.220;10.122;2023-04-03T05:06:42;5.07;;;3.20;;
11943;SDS011;6031;50.220;10.122;2023-04-03T05:09:08;7.60;;;3.20;;
11943;SDS011;6031;50.220;10.122;2023-04-03T05:11:34;6.30;;;3.50;;
11943;SDS011;6031;50.220;10.122;2023-04-03T05:14:00;6.07;;;3.90;;
11943;SDS011;6031;50.220;10.122;2023-04-03T05:16:25;3.57;;;3.27;;
11943;SDS011;6031;50.220;10.122;2023-04-03T05:18:51;5.57;;;3.93;;
11943;SDS011;6031;50.220;10.122;2023-04-03T05:21:16;4.37;;;3.00;;
11943;SDS011;6031;50.220;10.122;2023-04-03T05:23:43;4.00;;;3.60;;
11943;SDS011;6031;50.220;10.122;2023-04-03T05:26:08;4.97;;;4.07;;
11943;SDS011;6031;50.220;10.122;2023-04-03T05:28:34;5.17;;;4.07;;
11943;SDS011;6031;50.220;10.122;2023-04-03T05:31:00;3.93;;;3.63;;
11943;SDS011;6031;50.220;10.122;2023-04-03T05:33:25;6.37;;;3.90;;
11943;SDS011;6031;50.220;10.122;2023-04-03T05:35:52;7.00;;;3.97;;
11943;SDS011;6031;50.220;10.122;2023-04-03T05:38:18;5.40;;;3.47;;
11943;SDS011;6031;50.220;10.122;2023-04-03T05:40:43;11.70;;;6.03;;
11943;SDS011;6031;50.220;10.122;2023-04-03T05:43:09;4.63;;;4.13;;
11943;SDS011;6031;50.220;10.122;2023-04-03T05:45:35;3.40;;;3.07;;
11943;SDS011;6031;50.220;10.122;2023-04-03T05:48:00;4.97;;;3.80;;
11943;SDS011;6031;50.220;10.122;2023-04-03T05:50:26;3.53;;;2.53;;
11943;SDS011;6031;50.220;10.122;2023-04-03T05:52:52;9.20;;;4.67;;
11943;SDS011;6031;50.220;10.122;2023-04-03T05:55:21;4.53;;;3.53;;
11943;SDS011;6031;50.220;10.122;2023-04-03T05:57:47;6.20;;;3.80;;
11943;SDS011;6031;50.220;10.122;2023-04-03T06:00:13;2.40;;;2.20;;
11943;SDS011;6031;50.220;10.122;2023-04-03T06:02:40;3.30;;;3.07;;
11943;SDS011;6031;50.220;10.122;2023-04-03T06:05:07;4.27;;;3.10;;
11943;SDS011;6031;50.220;10.122;2023-04-03T06:07:33;4.23;;;3.07;;
11943;SDS011;6031;50.220;10.122;2023-04-03T06:09:59;6.37;;;4.13;;
11943;SDS011;6031;50.220;10.122;2023-04-03T06:12:26;2.73;;;2.40;;
11943;SDS011;6031;50.220;10.122;2023-04-03T06:14:53;3.50;;;2.67;;
11943;SDS011;6031;50.220;10.122;2023-04-03T06:17:19;4.47;;;2.33;;
11943;SDS011;6031;50.220;10.122;2023-04-03T06:19:45;3.60;;;2.53;;
11943;SDS011;6031;50.220;10.122;2023-04-03T06:22:11;4.23;;;2.07;;
11943;SDS011;6031;50.220;10.122;2023-04-03T06:24:36;4.50;;;2.87;;
11943;SDS011;6031;50.220;10.122;2023-04-03T06:27:03;1.77;;;1.67;;
11943;SDS011;6031;50.220;10.122;2023-04-03T06:29:29;4.90;;;3.57;;
11943;SDS011;6031;50.220;10.122;2023-04-03T06:31:55;2.87;;;2.03;;
11943;SDS011;6031;50.220;10.122;2023-04-03T06:34:20;3.17;;;2.97;;
11943;SDS011;6031;50.220;10.122;2023-04-03T06:36:47;2.83;;;2.37;;
11943;SDS011;6031;50.220;10.122;2023-04-03T06:39:14;4.80;;;2.83;;
11943;SDS011;6031;50.220;10.122;2023-04-03T06:41:41;3.73;;;3.37;;
11943;SDS011;6031;50.220;10.122;2023-04-03T06:44:07;2.80;;;2.60;;
11943;SDS011;6031;50.220;10.122;2023-04-03T06:46:36;5.73;;;2.93;;
11943;SDS011;6031;50.220;10.122;2023-04-03T06:49:03;3.50;;;2.37;;
11943;SDS011;6031;50.220;10.122;2023-04-03T06:51:29;3.13;;;2.83;;
11943;SDS011;6031;50.220;10.122;2023-04-03T06:53:56;3.70;;;2.83;;
11943;SDS011;6031;50.220;10.122;2023-04-03T06:56:23;3.30;;;2.80;;
11943;SDS011;6031;50.220;10.122;2023-04-03T06:58:50;5.80;;;4.00;;
11943;SDS011;6031;50.220;10.122;2023-04-03T07:01:17;2.33;;;2.20;;
11943;SDS011;6031;50.220;10.122;2023-04-03T07:03:46;2.97;;;2.30;;
11943;SDS011;6031;50.220;10.122;2023-04-03T07:06:14;3.40;;;2.80;;
11943;SDS011;6031;50.220;10.122;2023-04-03T07:08:40;4.23;;;2.40;;
11943;SDS011;6031;50.220;10.122;2023-04-03T07:11:06;4.83;;;2.73;;
11943;SDS011;6031;50.220;10.122;2023-04-03T07:13:33;4.63;;;2.50;;
11943;SDS011;6031;50.220;10.122;2023-04-03T07:15:58;4.20;;;2.77;;
11943;SDS011;6031;50.220;10.122;2023-04-03T07:18:24;3.23;;;2.43;;
11943;SDS011;6031;50.220;10.122;2023-04-03T07:20:50;4.53;;;3.00;;
11943;SDS011;6031;50.220;10.122;2023-04-03T07:23:16;4.17;;;2.30;;
11943;SDS011;6031;50.220;10.122;2023-04-03T07:25:42;2.93;;;2.70;;
11943;SDS011;6031;50.220;10.122;2023-04-03T07:28:12;4.87;;;2.53;;
11943;SDS011;6031;50.220;10.122;2023-04-03T07:30:44;3.57;;;3.13;;
11943;SDS011;6031;50.220;10.122;2023-04-03T07:33:12;3.70;;;2.80;;
11943;SDS011;6031;50.220;10.122;2023-04-03T07:35:39;4.20;;;3.13;;
11943;SDS011;6031;50.220;10.122;2023-04-03T07:38:05;4.83;;;2.00;;
11943;SDS011;6031;50.220;10.122;2023-04-03T07:40:31;2.60;;;2.40;;
11943;SDS011;6031;50.220;10.122;2023-04-03T07:42:56;4.40;;;2.70;;
11943;SDS011;6031;50.220;10.122;2023-04-03T07:45:22;4.67;;;2.77;;
11943;SDS011;6031;50.220;10.122;2023-04-03T07:47:48;2.43;;;1.90;;
11943;SDS011;6031;50.220;10.122;2023-04-03T07:50:14;3.30;;;2.97;;
11943;SDS011;6031;50.220;10.122;2023-04-03T07:52:40;3.30;;;2.50;;
11943;SDS011;6031;50.220;10.122;2023-04-03T07:55:05;3.47;;;2.70;;
11943;SDS011;6031;50.220;10.122;2023-04-03T07:57:31;2.93;;;2.40;;
11943;SDS011;6031;50.220;10.122;2023-04-03T07:59:57;5.13;;;2.70;;
11943;SDS011;6031;50.220;10.122;2023-04-03T08:02:22;3.73;;;2.57;;
11943;SDS011;6031;50.220;10.122;2023-04-03T08:04:48;2.43;;;1.97;;
11943;SDS011;6031;50.220;10.122;2023-04-03T08:07:13;4.63;;;2.63;;
11943;SDS011;6031;50.220;10.122;2023-04-03T08:09:39;1.63;;;1.53;;
11943;SDS011;6031;50.220;10.122;2023-04-03T08:12:05;7.53;;;2.10;;
11943;SDS011;6031;50.220;10.122;2023-04-03T08:14:31;3.63;;;2.33;;
11943;SDS011;6031;50.220;10.122;2023-04-03T08:16:59;2.50;;;2.07;;
11943;SDS011;6031;50.220;10.122;2023-04-03T08:19:25;4.83;;;1.70;;
11943;SDS011;6031;50.220;10.122;2023-04-03T08:21:51;2.57;;;2.30;;
11943;SDS011;6031;50.220;10.122;2023-04-03T08:24:17;4.93;;;2.90;;
11943;SDS011;6031;50.220;10.122;2023-04-03T08:26:42;2.33;;;2.23;;
11943;SDS011;6031;50.220;10.122;2023-04-03T08:29:08;2.13;;;1.90;;
11943;SDS011;6031;50.220;10.122;2023-04-03T08:31:34;3.50;;;2.63;;
11943;SDS011;6031;50.220;10.122;2023-04-03T08:33:59;3.07;;;2.70;;
11943;SDS011;6031;50.220;10.122;2023-04-03T08:36:26;2.50;;;2.37;;
11943;SDS011;6031;50.220;10.122;2023-04-03T08:38:53;4.90;;;3.17;;
11943;SDS011;6031;50.220;10.122;2023-04-03T08:44:07;3.50;;;2.20;;
11943;SDS011;6031;50.220;10.122;2023-04-03T08:49:55;4.70;;;3.00;;
11943;SDS011;6031;50.220;10.122;2023-04-03T08:52:25;3.77;;;2.70;;
11943;SDS011;6031;50.220;10.122;2023-04-03T08:55:05;4.87;;;3.10;;
11943;SDS011;6031;50.220;10.122;2023-04-03T08:57:40;2.67;;;2.47;;
11943;SDS011;6031;50.220;10.122;2023-04-03T09:00:19;2.90;;;1.97;;
11943;SDS011;6031;50.220;10.122;2023-04-03T09:02:48;3.00;;;2.53;;
11943;SDS011;6031;50.220;10.122;2023-04-03T09:05:17;2.33;;;2.13;;
11943;SDS011;6031;50.220;10.122;2023-04-03T09:08:05;4.43;;;2.40;;
11943;SDS011;6031;50.220;10.122;2023-04-03T09:10:47;3.73;;;2.03;;
11943;SDS011;6031;50.220;10.122;2023-04-03T09:13:24;2.97;;;2.63;;
11943;SDS011;6031;50.220;10.122;2023-04-03T09:16:04;4.20;;;2.60;;
11943;SDS011;6031;50.220;10.122;2023-04-03T09:18:42;4.63;;;2.40;;
11943;SDS011;6031;50.220;10.122;2023-04-03T09:21:26;5.83;;;2.40;;
11943;SDS011;6031;50.220;10.122;2023-04-03T09:24:00;2.73;;;2.53;;
11943;SDS011;6031;50.220;10.122;2023-04-03T09:26:36;4.40;;;2.30;;
11943;SDS011;6031;50.220;10.122;2023-04-03T09:29:12;2.47;;;2.17;;
11943;SDS011;6031;50.220;10.122;2023-04-03T09:31:42;3.07;;;2.00;;
11943;SDS011;6031;50.220;10.122;2023-04-03T09:34:23;2.57;;;2.30;;
11943;SDS011;6031;50.220;10.122;2023-04-03T09:36:58;3.10;;;1.60;;
11943;SDS011;6031;50.220;10.122;2023-04-03T09:39:30;3.90;;;2.20;;
11943;SDS011;6031;50.220;10.122;2023-04-03T09:42:01;2.87;;;1.53;;
11943;SDS011;6031;50.220;10.122;2023-04-03T09:44:33;3.20;;;1.80;;
11943;SDS011;6031;50.220;10.122;2023-04-03T09:47:16;1.30;;;1.20;;
11943;SDS011;6031;50.220;10.122;2023-04-03T09:49:43;1.80;;;1.50;;
11943;SDS011;6031;50.220;10.122;2023-04-03T09:52:18;2.47;;;1.70;;
11943;SDS011;6031;50.220;10.122;2023-04-03T09:54:51;2.30;;;1.30;;
11943;SDS011;6031;50.220;10.122;2023-04-03T09:57:17;2.77;;;1.23;;
11943;SDS011;6031;50.220;10.122;2023-04-03T09:59:47;1.20;;;1.20;;
11943;SDS011;6031;50.220;10.122;2023-04-03T10:02:35;1.37;;;1.27;;
11943;SDS011;6031;50.220;10.122;2023-04-03T10:05:04;1.20;;;1.10;;
11943;SDS011;6031;50.220;10.122;2023-04-03T10:07:50;1.67;;;1.33;;
11943;SDS011;6031;50.220;10.122;2023-04-03T10:10:18;1.67;;;1.30;;
11943;SDS011;6031;50.220;10.122;2023-04-03T10:12:44;1.17;;;1.07;;
11943;SDS011;6031;50.220;10.122;2023-04-03T10:15:14;1.10;;;0.87;;
11943;SDS011;6031;50.220;10.122;2023-04-03T10:20:35;1.33;;;1.23;;
11943;SDS011;6031;50.220;10.122;2023-04-03T10:24:06;1.73;;;1.40;;
11943;SDS011;6031;50.220;10.122;2023-04-03T10:26:29;1.80;;;1.20;;
11943;SDS011;6031;50.220;10.122;2023-04-03T10:29:23;1.87;;;1.37;;
11943;SDS011;6031;50.220;10.122;2023-04-03T10:35:02;3.97;;;1.40;;
11943;SDS011;6031;50.220;10.122;2023-04-03T10:37:44;3.50;;;1.27;;
11943;SDS011;6031;50.220;10.122;2023-04-03T10:40:39;2.60;;;1.30;;
11943;SDS011;6031;50.220;10.122;2023-04-03T10:46:52;2.27;;;1.43;;
11943;SDS011;6031;50.220;10.122;2023-04-03T10:49:22;1.93;;;1.40;;
11943;SDS011;6031;50.220;10.122;2023-04-03T10:57:32;1.53;;;1.10;;
11943;SDS011;6031;50.220;10.122;2023-04-03T10:59:59;1.43;;;1.17;;
11943;SDS011;6031;50.220;10.122;2023-04-03T11:02:32;2.43;;;1.30;;
11943;SDS011;6031;50.220;10.122;2023-04-03T11:05:32;3.43;;;1.77;;
11943;SDS011;6031;50.220;10.122;2023-04-03T11:08:13;1.30;;;1.20;;
11943;SDS011;6031;50.220;10.122;2023-04-03T11:10:44;1.20;;;1.00;;
11943;SDS011;6031;50.220;10.122;2023-04-03T11:13:16;4.00;;;2.13;;
11943;SDS011;6031;50.220;10.122;2023-04-03T11:15:46;3.80;;;2.73;;
11943;SDS011;6031;50.220;10.122;2023-04-03T11:18:13;1.50;;;1.40;;
11943;SDS011;6031;50.220;10.122;2023-04-03T11:20:53;2.03;;;1.63;;
11943;SDS011;6031;50.220;10.122;2023-04-03T11:23:36;1.90;;;1.20;;
11943;SDS011;6031;50.220;10.122;2023-04-03T11:26:07;2.27;;;2.07;;
11943;SDS011;6031;50.220;10.122;2023-04-03T11:28:36;1.27;;;1.17;;
11943;SDS011;6031;50.220;10.122;2023-04-03T11:31:06;1.10;;;1.00;;
11943;SDS011;6031;50.220;10.122;2023-04-03T11:33:51;2.17;;;1.40;;
11943;SDS011;6031;50.220;10.122;2023-04-03T11:36:47;1.00;;;0.90;;
11943;SDS011;6031;50.220;10.122;2023-04-03T11:39:22;4.30;;;1.83;;
11943;SDS011;6031;50.220;10.122;2023-04-03T11:41:51;1.53;;;1.43;;
11943;SDS011;6031;50.220;10.122;2023-04-03T11:44:36;3.97;;;2.70;;
11943;SDS011;6031;50.220;10.122;2023-04-03T11:47:04;1.90;;;1.70;;
11943;SDS011;6031;50.220;10.122;2023-04-03T12:08:50;3.73;;;2.10;;
11943;SDS011;6031;50.220;10.122;2023-04-03T12:11:25;2.70;;;1.80;;
11943;SDS011;6031;50.220;10.122;2023-04-03T12:24:29;3.03;;;1.97;;
11943;SDS011;6031;50.220;10.122;2023-04-03T12:29:24;1.60;;;1.50;;
11943;SDS011;6031;50.220;10.122;2023-04-03T12:35:14;4.97;;;2.10;;
11943;SDS011;6031;50.220;10.122;2023-04-03T12:43:27;1.30;;;1.20;;
11943;SDS011;6031;50.220;10.122;2023-04-03T12:46:11;1.43;;;1.20;;
11943;SDS011;6031;50.220;10.122;2023-04-03T12:48:47;1.50;;;1.40;;
11943;SDS011;6031;50.220;10.122;2023-04-03T12:51:18;1.73;;;1.63;;
11943;SDS011;6031;50.220;10.122;2023-04-03T12:54:00;4.97;;;2.17;;
11943;SDS011;6031;50.220;10.122;2023-04-03T12:56:29;1.50;;;1.40;;
11943;SDS011;6031;50.220;10.122;2023-04-03T12:59:12;2.67;;;1.40;;
11943;SDS011;6031;50.220;10.122;2023-04-03T13:01:55;2.30;;;1.20;;
11943;SDS011;6031;50.220;10.122;2023-04-03T13:04:22;1.83;;;1.37;;
11943;SDS011;6031;50.220;10.122;2023-04-03T13:06:48;1.43;;;1.00;;
11943;SDS011;6031;50.220;10.122;2023-04-03T13:09:25;1.37;;;1.10;;
11943;SDS011;6031;50.220;10.122;2023-04-03T13:12:11;1.53;;;1.37;;
11943;SDS011;6031;50.220;10.122;2023-04-03T13:14:38;1.83;;;1.70;;
11943;SDS011;6031;50.220;10.122;2023-04-03T13:17:13;1.30;;;1.20;;
11943;SDS011;6031;50.220;10.122;2023-04-03T13:19:40;2.10;;;1.80;;
11943;SDS011;6031;50.220;10.122;2023-04-03T13:22:24;3.03;;;2.57;;
11943;SDS011;6031;50.220;10.122;2023-04-03T13:24:55;2.67;;;1.20;;
11943;SDS011;6031;50.220;10.122;2023-04-03T13:27:24;2.87;;;2.10;;
11943;SDS011;6031;50.220;10.122;2023-04-03T13:29:51;1.27;;;1.07;;
11943;SDS011;6031;50.220;10.122;2023-04-03T13:32:22;1.77;;;1.40;;
11943;SDS011;6031;50.220;10.122;2023-04-03T13:34:50;4.43;;;2.43;;
11943;SDS011;6031;50.220;10.122;2023-04-03T13:37:23;2.90;;;1.43;;
11943;SDS011;6031;50.220;10.122;2023-04-03T13:39:57;1.53;;;1.20;;
11943;SDS011;6031;50.220;10.122;2023-04-03T13:42:24;4.87;;;2.47;;
11943;SDS011;6031;50.220;10.122;2023-04-03T13:47:40;2.03;;;1.10;;
11943;SDS011;6031;50.220;10.122;2023-04-03T13:52:40;1.23;;;0.90;;
11943;SDS011;6031;50.220;10.122;2023-04-03T13:55:29;1.60;;;1.50;;
11943;SDS011;6031;50.220;10.122;2023-04-03T14:00:50;1.00;;;0.90;;
11943;SDS011;6031;50.220;10.122;2023-04-03T14:03:44;2.03;;;1.50;;
11943;SDS011;6031;50.220;10.122;2023-04-03T14:06:24;2.30;;;1.60;;
11943;SDS011;6031;50.220;10.122;2023-04-03T14:08:50;2.03;;;1.90;;
11943;SDS011;6031;50.220;10.122;2023-04-03T14:11:18;1.67;;;1.10;;
11943;SDS011;6031;50.220;10.122;2023-04-03T14:13:46;1.53;;;1.30;;
11943;SDS011;6031;50.220;10.122;2023-04-03T14:16:13;2.50;;;1.40;;
11943;SDS011;6031;50.220;10.122;2023-04-03T14:18:41;2.07;;;1.10;;
11943;SDS011;6031;50.220;10.122;2023-04-03T14:21:10;1.20;;;0.90;;
11943;SDS011;6031;50.220;10.122;2023-04-03T14:23:37;4.37;;;1.70;;
11943;SDS011;6031;50.220;10.122;2023-04-03T14:26:04;2.33;;;1.67;;
11943;SDS011;6031;50.220;10.122;2023-04-03T14:28:34;2.73;;;2.20;;
11943;SDS011;6031;50.220;10.122;2023-04-03T14:31:00;2.40;;;1.47;;
11943;SDS011;6031;50.220;10.122;2023-04-03T14:33:25;2.83;;;2.00;;
11943;SDS011;6031;50.220;10.122;2023-04-03T14:35:52;2.73;;;1.70;;
11943;SDS011;6031;50.220;10.122;2023-04-03T14:38:25;4.90;;;2.50;;
11943;SDS011;6031;50.220;10.122;2023-04-03T14:40:53;1.00;;;0.90;;
11943;SDS011;6031;50.220;10.122;2023-04-03T14:43:20;1.97;;;1.27;;
11943;SDS011;6031;50.220;10.122;2023-04-03T14:45:46;2.20;;;1.10;;
11943;SDS011;6031;50.220;10.122;2023-04-03T14:48:21;2.53;;;1.53;;
11943;SDS011;6031;50.220;10.122;2023-04-03T14:50:50;1.87;;;1.33;;
11943;SDS011;6031;50.220;10.122;2023-04-03T14:53:17;2.83;;;1.53;;
11943;SDS011;6031;50.220;10.122;2023-04-03T14:55:47;1.70;;;1.40;;
11943;SDS011;6031;50.220;10.122;2023-04-03T14:58:14;2.23;;;1.63;;
11943;SDS011;6031;50.220;10.122;2023-04-03T15:00:41;3.00;;;1.47;;
11943;SDS011;6031;50.220;10.122;2023-04-03T15:03:17;1.60;;;1.50;;
11943;SDS011;6031;50.220;10.122;2023-04-03T15:05:45;5.37;;;1.70;;
11943;SDS011;6031;50.220;10.122;2023-04-03T15:08:21;1.33;;;1.17;;
11943;SDS011;6031;50.220;10.122;2023-04-03T15:10:49;5.43;;;1.37;;
11943;SDS011;6031;50.220;10.122;2023-04-03T15:13:17;1.47;;;1.37;;
11943;SDS011;6031;50.220;10.122;2023-04-03T15:15:44;2.33;;;1.83;;
11943;SDS011;6031;50.220;10.122;2023-04-03T15:18:11;1.77;;;1.50;;
11943;SDS011;6031;50.220;10.122;2023-04-03T15:20:41;1.40;;;1.00;;
11943;SDS011;6031;50.220;10.122;2023-04-03T15:23:08;1.60;;;1.40;;
11943;SDS011;6031;50.220;10.122;2023-04-03T15:25:35;1.87;;;1.10;;
11943;SDS011;6031;50.220;10.122;2023-04-03T15:28:01;2.53;;;2.33;;
11943;SDS011;6031;50.220;10.122;2023-04-03T15:30:26;1.97;;;1.87;;
11943;SDS011;6031;50.220;10.122;2023-04-03T15:32:52;1.77;;;1.13;;
11943;SDS011;6031;50.220;10.122;2023-04-03T15:35:18;2.50;;;2.30;;
11943;SDS011;6031;50.220;10.122;2023-04-03T15:37:43;2.20;;;2.00;;
11943;SDS011;6031;50.220;10.122;2023-04-03T15:40:09;2.50;;;1.43;;
11943;SDS011;6031;50.220;10.122;2023-04-03T15:42:35;2.10;;;1.90;;
11943;SDS011;6031;50.220;10.122;2023-04-03T15:45:00;1.47;;;1.20;;
11943;SDS011;6031;50.220;10.122;2023-04-03T15:47:26;3.97;;;1.47;;
11943;SDS011;6031;50.220;10.122;2023-04-03T15:49:53;4.33;;;2.70;;
11943;SDS011;6031;50.220;10.122;2023-04-03T15:52:19;2.17;;;1.43;;
11943;SDS011;6031;50.220;10.122;2023-04-03T15:54:44;1.50;;;1.30;;
11943;SDS011;6031;50.220;10.122;2023-04-03T15:57:10;2.40;;;1.57;;
11943;SDS011;6031;50.220;10.122;2023-04-03T15:59:36;3.57;;;1.90;;
11943;SDS011;6031;50.220;10.122;2023-04-03T16:02:01;4.30;;;2.23;;
11943;SDS011;6031;50.220;10.122;2023-04-03T16:04:30;2.67;;;1.20;;
11943;SDS011;6031;50.220;10.122;2023-04-03T16:07:00;3.47;;;1.70;;
11943;SDS011;6031;50.220;10.122;2023-04-03T16:09:27;1.90;;;1.40;;
11943;SDS011;6031;50.220;10.122;2023-04-03T16:11:52;2.70;;;2.20;;
11943;SDS011;6031;50.220;10.122;2023-04-03T16:14:18;1.70;;;1.60;;